sensor_id;sensor_type;location;lat;lon;timestamp;temperature;humidity
19363;DHT22;9817;50.80926400;5.16316200;2024-02-21T00:00:55;10.60;99.90
19363;DHT22;9817;50.80926400;5.16316200;2024-02-21T00:03:20;10.60;99.90
19363;DHT22;9817;50.80926400;5.16316200;2024-02-21T00:05:46;10.50;99.90
19363;DHT22;9817;50.80926400;5.16316200;2024-02-21T00:08:12;10.50;99.90
19363;DHT22;9817;50.80926400;5.16316200;2024-02-21T00:10:38;10.60;99.90
19363;DHT22;9817;50.80926400;5.16316200;2024-02-21T00:13:03;10.60;99.90
19363;DHT22;9817;50.80926400;5.16316200;2024-02-21T00:15:29;10.60;99.90
19363;DHT22;9817;50.80926400;5.16316200;2024-02-21T00:17:54;10.60;99.90
19363;DHT22;9817;50.80926400;5.16316200;2024-02-21T00:20:20;10.60;99.90
19363;DHT22;9817;50.80926400;5.16316200;2024-02-21T00:22:46;10.50;99.90
19363;DHT22;9817;50.80926400;5.16316200;2024-02-21T00:25:12;10.50;99.90
19363;DHT22;9817;50.80926400;5.16316200;2024-02-21T00:27:38;10.60;99.90
19363;DHT22;9817;50.80926400;5.16316200;2024-02-21T00:30:04;10.60;99.90
19363;DHT22;9817;50.80926400;5.16316200;2024-02-21T00:32:30;10.60;99.90
19363;DHT22;9817;50.80926400;5.16316200;2024-02-21T00:34:57;10.50;99.90
19363;DHT22;9817;50.80926400;5.16316200;2024-02-21T00:37:23;10.50;99.90
19363;DHT22;9817;50.80926400;5.16316200;2024-02-21T00:39:48;10.40;99.90
19363;DHT22;9817;50.80926400;5.16316200;2024-02-21T00:42:14;10.40;99.90
19363;DHT22;9817;50.80926400;5.16316200;2024-02-21T00:44:39;10.30;99.90
19363;DHT22;9817;50.80926400;5.16316200;2024-02-21T00:47:05;10.20;99.90
19363;DHT22;9817;50.80926400;5.16316200;2024-02-21T00:49:31;10.30;99.90
19363;DHT22;9817;50.80926400;5.16316200;2024-02-21T00:51:56;10.30;99.90
19363;DHT22;9817;50.80926400;5.16316200;2024-02-21T00:54:22;10.30;99.90
19363;DHT22;9817;50.80926400;5.16316200;2024-02-21T00:56:48;10.40;99.90
19363;DHT22;9817;50.80926400;5.16316200;2024-02-21T00:59:13;10.40;99.90
19363;DHT22;9817;50.80926400;5.16316200;2024-02-21T01:01:39;10.30;99.90
19363;DHT22;9817;50.80926400;5.16316200;2024-02-21T01:04:08;10.40;99.90
19363;DHT22;9817;50.80926400;5.16316200;2024-02-21T01:06:34;10.40;99.90
19363;DHT22;9817;50.80926400;5.16316200;2024-02-21T01:09:00;10.20;99.90
19363;DHT22;9817;50.80926400;5.16316200;2024-02-21T01:11:25;10.40;99.90
19363;DHT22;9817;50.80926400;5.16316200;2024-02-21T01:13:51;10.40;99.90
19363;DHT22;9817;50.80926400;5.16316200;2024-02-21T01:16:17;10.40;99.90
19363;DHT22;9817;50.80926400;5.16316200;2024-02-21T01:18:42;10.30;99.90
19363;DHT22;9817;50.80926400;5.16316200;2024-02-21T01:21:08;10.30;99.90
19363;DHT22;9817;50.80926400;5.16316200;2024-02-21T01:23:35;10.30;99.90
19363;DHT22;9817;50.80926400;5.16316200;2024-02-21T01:26:02;10.20;99.90
19363;DHT22;9817;50.80926400;5.16316200;2024-02-21T01:28:28;10.20;99.90
19363;DHT22;9817;50.80926400;5.16316200;2024-02-21T01:30:55;10.10;99.90
19363;DHT22;9817;50.80926400;5.16316200;2024-02-21T01:33:21;10.10;99.90
19363;DHT22;9817;50.80926400;5.16316200;2024-02-21T01:35:46;10.20;99.90
19363;DHT22;9817;50.80926400;5.16316200;2024-02-21T01:38:13;10.40;99.90
19363;DHT22;9817;50.80926400;5.16316200;2024-02-21T01:40:38;10.20;99.90
19363;DHT22;9817;50.80926400;5.16316200;2024-02-21T01:43:15;10.30;99.90
19363;DHT22;9817;50.80926400;5.16316200;2024-02-21T01:45:42;10.20;99.90
19363;DHT22;9817;50.80926400;5.16316200;2024-02-21T01:48:07;10.20;99.90
19363;DHT22;9817;50.80926400;5.16316200;2024-02-21T01:50:33;10.30;99.90
19363;DHT22;9817;50.80926400;5.16316200;2024-02-21T01:52:59;10.40;99.90
19363;DHT22;9817;50.80926400;5.16316200;2024-02-21T01:55:25;10.20;99.90
19363;DHT22;9817;50.80926400;5.16316200;2024-02-21T01:57:51;10.10;99.90
19363;DHT22;9817;50.80926400;5.16316200;2024-02-21T02:00:17;10.10;99.90
19363;DHT22;9817;50.80926400;5.16316200;2024-02-21T02:02:44;10.10;99.90
19363;DHT22;9817;50.80926400;5.16316200;2024-02-21T02:05:11;10.30;99.90
19363;DHT22;9817;50.80926400;5.16316200;2024-02-21T02:07:37;10.30;99.90
19363;DHT22;9817;50.80926400;5.16316200;2024-02-21T02:10:03;10.20;99.90
19363;DHT22;9817;50.80926400;5.16316200;2024-02-21T02:12:29;10.20;99.90
19363;DHT22;9817;50.80926400;5.16316200;2024-02-21T02:15:01;10.20;99.90
19363;DHT22;9817;50.80926400;5.16316200;2024-02-21T02:17:30;10.10;99.90
19363;DHT22;9817;50.80926400;5.16316200;2024-02-21T02:19:56;10.10;99.90
19363;DHT22;9817;50.80926400;5.16316200;2024-02-21T02:22:23;9.90;99.90
19363;DHT22;9817;50.80926400;5.16316200;2024-02-21T02:24:51;10.00;99.90
19363;DHT22;9817;50.80926400;5.16316200;2024-02-21T02:27:17;10.10;99.90
19363;DHT22;9817;50.80926400;5.16316200;2024-02-21T02:29:42;10.00;99.90
19363;DHT22;9817;50.80926400;5.16316200;2024-02-21T02:32:08;10.00;99.90
19363;DHT22;9817;50.80926400;5.16316200;2024-02-21T02:34:34;10.00;99.90
19363;DHT22;9817;50.80926400;5.16316200;2024-02-21T02:37:00;9.90;99.90
19363;DHT22;9817;50.80926400;5.16316200;2024-02-21T02:39:25;9.90;99.90
19363;DHT22;9817;50.80926400;5.16316200;2024-02-21T02:41:51;10.00;99.90
19363;DHT22;9817;50.80926400;5.16316200;2024-02-21T02:44:16;9.80;99.90
19363;DHT22;9817;50.80926400;5.16316200;2024-02-21T02:46:42;9.80;99.90
19363;DHT22;9817;50.80926400;5.16316200;2024-02-21T02:49:08;9.90;99.90
19363;DHT22;9817;50.80926400;5.16316200;2024-02-21T02:51:34;9.80;99.90
19363;DHT22;9817;50.80926400;5.16316200;2024-02-21T02:53:59;9.90;99.90
19363;DHT22;9817;50.80926400;5.16316200;2024-02-21T02:56:25;9.90;99.90
19363;DHT22;9817;50.80926400;5.16316200;2024-02-21T02:58:51;10.00;99.90
19363;DHT22;9817;50.80926400;5.16316200;2024-02-21T03:01:16;10.10;99.90
19363;DHT22;9817;50.80926400;5.16316200;2024-02-21T03:03:42;10.00;99.90
19363;DHT22;9817;50.80926400;5.16316200;2024-02-21T03:06:07;9.80;99.90
19363;DHT22;9817;50.80926400;5.16316200;2024-02-21T03:08:33;9.80;99.90
19363;DHT22;9817;50.80926400;5.16316200;2024-02-21T03:10:59;9.80;99.90
19363;DHT22;9817;50.80926400;5.16316200;2024-02-21T03:13:26;9.80;99.90
19363;DHT22;9817;50.80926400;5.16316200;2024-02-21T03:15:51;9.90;99.90
19363;DHT22;9817;50.80926400;5.16316200;2024-02-21T03:18:17;9.90;99.90
19363;DHT22;9817;50.80926400;5.16316200;2024-02-21T03:20:42;9.90;99.90
19363;DHT22;9817;50.80926400;5.16316200;2024-02-21T03:23:08;9.90;99.90
19363;DHT22;9817;50.80926400;5.16316200;2024-02-21T03:25:34;9.90;99.90
19363;DHT22;9817;50.80926400;5.16316200;2024-02-21T03:27:59;10.10;99.90
19363;DHT22;9817;50.80926400;5.16316200;2024-02-21T03:30:25;10.00;99.90
19363;DHT22;9817;50.80926400;5.16316200;2024-02-21T03:32:51;9.80;99.90
19363;DHT22;9817;50.80926400;5.16316200;2024-02-21T03:35:16;9.80;99.90
19363;DHT22;9817;50.80926400;5.16316200;2024-02-21T03:37:42;9.80;99.90
19363;DHT22;9817;50.80926400;5.16316200;2024-02-21T03:40:10;10.00;99.90
19363;DHT22;9817;50.80926400;5.16316200;2024-02-21T03:42:36;9.90;99.90
19363;DHT22;9817;50.80926400;5.16316200;2024-02-21T03:45:02;9.90;99.90
19363;DHT22;9817;50.80926400;5.16316200;2024-02-21T03:47:29;10.10;99.90
19363;DHT22;9817;50.80926400;5.16316200;2024-02-21T03:49:54;10.10;99.90
19363;DHT22;9817;50.80926400;5.16316200;2024-02-21T03:52:20;10.00;99.90
19363;DHT22;9817;50.80926400;5.16316200;2024-02-21T03:54:46;10.00;99.90
19363;DHT22;9817;50.80926400;5.16316200;2024-02-21T03:57:11;9.90;99.90
19363;DHT22;9817;50.80926400;5.16316200;2024-02-21T03:59:37;9.90;99.90
19363;DHT22;9817;50.80926400;5.16316200;2024-02-21T04:02:05;9.90;99.90
19363;DHT22;9817;50.80926400;5.16316200;2024-02-21T04:04:34;9.70;99.90
19363;DHT22;9817;50.80926400;5.16316200;2024-02-21T04:07:00;9.70;99.90
19363;DHT22;9817;50.80926400;5.16316200;2024-02-21T04:09:26;9.80;99.90
19363;DHT22;9817;50.80926400;5.16316200;2024-02-21T04:11:52;9.70;99.90
19363;DHT22;9817;50.80926400;5.16316200;2024-02-21T04:14:17;9.70;99.90
19363;DHT22;9817;50.80926400;5.16316200;2024-02-21T04:16:43;9.80;99.90
19363;DHT22;9817;50.80926400;5.16316200;2024-02-21T04:19:08;9.80;99.90
19363;DHT22;9817;50.80926400;5.16316200;2024-02-21T04:21:34;9.90;99.90
19363;DHT22;9817;50.80926400;5.16316200;2024-02-21T04:24:00;10.00;99.90
19363;DHT22;9817;50.80926400;5.16316200;2024-02-21T04:26:27;10.00;99.90
19363;DHT22;9817;50.80926400;5.16316200;2024-02-21T04:28:53;10.00;99.90
19363;DHT22;9817;50.80926400;5.16316200;2024-02-21T04:31:18;9.70;99.90
19363;DHT22;9817;50.80926400;5.16316200;2024-02-21T04:33:44;9.70;99.90
19363;DHT22;9817;50.80926400;5.16316200;2024-02-21T04:36:09;9.70;99.90
19363;DHT22;9817;50.80926400;5.16316200;2024-02-21T04:38:35;9.90;99.90
19363;DHT22;9817;50.80926400;5.16316200;2024-02-21T04:41:01;9.80;99.90
19363;DHT22;9817;50.80926400;5.16316200;2024-02-21T04:43:26;9.80;99.90
19363;DHT22;9817;50.80926400;5.16316200;2024-02-21T04:45:52;9.90;99.90
19363;DHT22;9817;50.80926400;5.16316200;2024-02-21T04:48:19;10.10;99.90
19363;DHT22;9817;50.80926400;5.16316200;2024-02-21T04:50:45;10.20;99.90
19363;DHT22;9817;50.80926400;5.16316200;2024-02-21T04:53:11;10.10;99.90
19363;DHT22;9817;50.80926400;5.16316200;2024-02-21T04:55:36;10.00;99.90
19363;DHT22;9817;50.80926400;5.16316200;2024-02-21T04:58:02;10.00;99.90
19363;DHT22;9817;50.80926400;5.16316200;2024-02-21T05:00:28;10.00;99.90
19363;DHT22;9817;50.80926400;5.16316200;2024-02-21T05:02:53;9.80;99.90
19363;DHT22;9817;50.80926400;5.16316200;2024-02-21T05:05:19;9.90;99.90
19363;DHT22;9817;50.80926400;5.16316200;2024-02-21T05:07:45;9.80;99.90
19363;DHT22;9817;50.80926400;5.16316200;2024-02-21T05:10:10;9.80;99.90
19363;DHT22;9817;50.80926400;5.16316200;2024-02-21T05:12:36;10.00;99.90
19363;DHT22;9817;50.80926400;5.16316200;2024-02-21T05:15:02;9.90;99.90
19363;DHT22;9817;50.80926400;5.16316200;2024-02-21T05:17:28;9.90;99.90
19363;DHT22;9817;50.80926400;5.16316200;2024-02-21T05:19:54;9.80;99.90
19363;DHT22;9817;50.80926400;5.16316200;2024-02-21T05:22:19;9.70;99.90
19363;DHT22;9817;50.80926400;5.16316200;2024-02-21T05:24:45;9.60;99.90
19363;DHT22;9817;50.80926400;5.16316200;2024-02-21T05:27:11;9.70;99.90
19363;DHT22;9817;50.80926400;5.16316200;2024-02-21T05:29:36;9.50;99.90
19363;DHT22;9817;50.80926400;5.16316200;2024-02-21T05:32:02;9.60;99.90
19363;DHT22;9817;50.80926400;5.16316200;2024-02-21T05:34:28;9.50;99.90
19363;DHT22;9817;50.80926400;5.16316200;2024-02-21T05:36:54;9.50;99.90
19363;DHT22;9817;50.80926400;5.16316200;2024-02-21T05:39:19;9.70;99.90
19363;DHT22;9817;50.80926400;5.16316200;2024-02-21T05:41:48;9.50;99.90
19363;DHT22;9817;50.80926400;5.16316200;2024-02-21T05:44:13;9.50;99.90
19363;DHT22;9817;50.80926400;5.16316200;2024-02-21T05:46:39;9.40;99.90
19363;DHT22;9817;50.80926400;5.16316200;2024-02-21T05:49:05;9.50;99.90
19363;DHT22;9817;50.80926400;5.16316200;2024-02-21T05:51:35;9.50;99.90
19363;DHT22;9817;50.80926400;5.16316200;2024-02-21T05:54:01;9.70;99.90
19363;DHT22;9817;50.80926400;5.16316200;2024-02-21T05:56:27;9.70;99.90
19363;DHT22;9817;50.80926400;5.16316200;2024-02-21T05:58:53;9.70;99.90
19363;DHT22;9817;50.80926400;5.16316200;2024-02-21T06:01:19;9.80;99.90
19363;DHT22;9817;50.80926400;5.16316200;2024-02-21T06:03:47;9.90;99.90
19363;DHT22;9817;50.80926400;5.16316200;2024-02-21T06:06:12;9.80;99.90
19363;DHT22;9817;50.80926400;5.16316200;2024-02-21T06:08:40;9.60;99.90
19363;DHT22;9817;50.80926400;5.16316200;2024-02-21T06:11:05;9.50;99.90
19363;DHT22;9817;50.80926400;5.16316200;2024-02-21T06:13:31;9.50;99.90
19363;DHT22;9817;50.80926400;5.16316200;2024-02-21T06:15:57;9.60;99.90
19363;DHT22;9817;50.80926400;5.16316200;2024-02-21T06:18:22;9.70;99.90
19363;DHT22;9817;50.80926400;5.16316200;2024-02-21T06:20:48;9.60;99.90
19363;DHT22;9817;50.80926400;5.16316200;2024-02-21T06:23:16;9.70;99.90
19363;DHT22;9817;50.80926400;5.16316200;2024-02-21T06:25:42;9.60;99.90
19363;DHT22;9817;50.80926400;5.16316200;2024-02-21T06:28:08;9.70;99.90
19363;DHT22;9817;50.80926400;5.16316200;2024-02-21T06:30:34;9.70;99.90
19363;DHT22;9817;50.80926400;5.16316200;2024-02-21T06:32:59;9.70;99.90
19363;DHT22;9817;50.80926400;5.16316200;2024-02-21T06:35:26;9.70;99.90
19363;DHT22;9817;50.80926400;5.16316200;2024-02-21T06:37:52;9.60;99.90
19363;DHT22;9817;50.80926400;5.16316200;2024-02-21T06:40:20;9.60;99.90
19363;DHT22;9817;50.80926400;5.16316200;2024-02-21T06:42:46;9.50;99.90
19363;DHT22;9817;50.80926400;5.16316200;2024-02-21T06:45:12;9.50;99.90
19363;DHT22;9817;50.80926400;5.16316200;2024-02-21T06:47:37;9.40;99.90
19363;DHT22;9817;50.80926400;5.16316200;2024-02-21T06:50:03;9.40;99.90
19363;DHT22;9817;50.80926400;5.16316200;2024-02-21T06:52:29;9.60;99.90
19363;DHT22;9817;50.80926400;5.16316200;2024-02-21T06:54:54;9.40;99.90
19363;DHT22;9817;50.80926400;5.16316200;2024-02-21T06:57:20;9.30;99.90
19363;DHT22;9817;50.80926400;5.16316200;2024-02-21T06:59:45;9.20;99.90
19363;DHT22;9817;50.80926400;5.16316200;2024-02-21T07:02:11;9.10;99.90
19363;DHT22;9817;50.80926400;5.16316200;2024-02-21T07:04:37;9.10;99.90
19363;DHT22;9817;50.80926400;5.16316200;2024-02-21T07:07:02;9.20;99.90
19363;DHT22;9817;50.80926400;5.16316200;2024-02-21T07:09:28;9.20;99.90
19363;DHT22;9817;50.80926400;5.16316200;2024-02-21T07:11:57;9.20;99.90
19363;DHT22;9817;50.80926400;5.16316200;2024-02-21T07:14:23;9.30;99.90
19363;DHT22;9817;50.80926400;5.16316200;2024-02-21T07:16:49;9.20;99.90
19363;DHT22;9817;50.80926400;5.16316200;2024-02-21T07:19:14;9.10;99.90
19363;DHT22;9817;50.80926400;5.16316200;2024-02-21T07:21:40;9.10;99.90
19363;DHT22;9817;50.80926400;5.16316200;2024-02-21T07:24:07;9.20;99.90
19363;DHT22;9817;50.80926400;5.16316200;2024-02-21T07:26:33;9.30;99.90
19363;DHT22;9817;50.80926400;5.16316200;2024-02-21T07:28:59;9.20;99.90
19363;DHT22;9817;50.80926400;5.16316200;2024-02-21T07:31:24;9.20;99.90
19363;DHT22;9817;50.80926400;5.16316200;2024-02-21T07:33:50;9.30;99.90
19363;DHT22;9817;50.80926400;5.16316200;2024-02-21T07:36:23;9.10;99.90
19363;DHT22;9817;50.80926400;5.16316200;2024-02-21T07:38:49;9.20;99.90
19363;DHT22;9817;50.80926400;5.16316200;2024-02-21T07:41:15;9.10;99.90
19363;DHT22;9817;50.80926400;5.16316200;2024-02-21T07:43:41;9.20;99.90
19363;DHT22;9817;50.80926400;5.16316200;2024-02-21T07:46:06;9.20;99.90
19363;DHT22;9817;50.80926400;5.16316200;2024-02-21T07:48:32;9.40;99.90
19363;DHT22;9817;50.80926400;5.16316200;2024-02-21T07:50:58;9.40;99.90
19363;DHT22;9817;50.80926400;5.16316200;2024-02-21T07:53:23;9.40;99.90
19363;DHT22;9817;50.80926400;5.16316200;2024-02-21T07:55:49;9.40;99.90
19363;DHT22;9817;50.80926400;5.16316200;2024-02-21T07:58:15;9.30;99.90
19363;DHT22;9817;50.80926400;5.16316200;2024-02-21T08:00:41;9.30;99.90
19363;DHT22;9817;50.80926400;5.16316200;2024-02-21T08:03:06;9.40;99.90
19363;DHT22;9817;50.80926400;5.16316200;2024-02-21T08:05:34;9.30;99.90
19363;DHT22;9817;50.80926400;5.16316200;2024-02-21T08:08:00;9.40;99.90
19363;DHT22;9817;50.80926400;5.16316200;2024-02-21T08:10:25;9.50;99.90
19363;DHT22;9817;50.80926400;5.16316200;2024-02-21T08:12:51;9.70;99.90
19363;DHT22;9817;50.80926400;5.16316200;2024-02-21T08:15:17;9.70;99.90
19363;DHT22;9817;50.80926400;5.16316200;2024-02-21T08:17:43;9.80;99.90
19363;DHT22;9817;50.80926400;5.16316200;2024-02-21T08:20:09;9.70;99.90
19363;DHT22;9817;50.80926400;5.16316200;2024-02-21T08:22:37;9.70;99.90
19363;DHT22;9817;50.80926400;5.16316200;2024-02-21T08:25:03;9.80;99.90
19363;DHT22;9817;50.80926400;5.16316200;2024-02-21T08:27:31;9.80;99.90
19363;DHT22;9817;50.80926400;5.16316200;2024-02-21T08:29:56;10.00;99.90
19363;DHT22;9817;50.80926400;5.16316200;2024-02-21T08:32:22;9.90;99.90
19363;DHT22;9817;50.80926400;5.16316200;2024-02-21T08:34:47;9.90;99.90
19363;DHT22;9817;50.80926400;5.16316200;2024-02-21T08:37:13;10.00;99.90
19363;DHT22;9817;50.80926400;5.16316200;2024-02-21T08:39:39;10.10;99.90
19363;DHT22;9817;50.80926400;5.16316200;2024-02-21T08:42:05;10.10;99.90
19363;DHT22;9817;50.80926400;5.16316200;2024-02-21T08:44:30;10.00;99.90
19363;DHT22;9817;50.80926400;5.16316200;2024-02-21T08:46:56;10.00;99.90
19363;DHT22;9817;50.80926400;5.16316200;2024-02-21T08:49:22;9.90;99.90
19363;DHT22;9817;50.80926400;5.16316200;2024-02-21T08:51:47;10.00;99.90
19363;DHT22;9817;50.80926400;5.16316200;2024-02-21T08:54:13;10.00;99.90
19363;DHT22;9817;50.80926400;5.16316200;2024-02-21T08:56:39;10.10;99.90
19363;DHT22;9817;50.80926400;5.16316200;2024-02-21T08:59:04;10.30;99.90
19363;DHT22;9817;50.80926400;5.16316200;2024-02-21T09:01:30;10.50;99.90
19363;DHT22;9817;50.80926400;5.16316200;2024-02-21T09:03:55;10.40;99.90
19363;DHT22;9817;50.80926400;5.16316200;2024-02-21T09:06:22;10.30;99.90
19363;DHT22;9817;50.80926400;5.16316200;2024-02-21T09:08:48;10.30;99.90
19363;DHT22;9817;50.80926400;5.16316200;2024-02-21T09:11:14;10.40;99.90
19363;DHT22;9817;50.80926400;5.16316200;2024-02-21T09:13:40;10.30;99.90
19363;DHT22;9817;50.80926400;5.16316200;2024-02-21T09:16:06;10.30;99.90
19363;DHT22;9817;50.80926400;5.16316200;2024-02-21T09:18:31;10.40;99.90
19363;DHT22;9817;50.80926400;5.16316200;2024-02-21T09:20:57;10.30;99.90
19363;DHT22;9817;50.80926400;5.16316200;2024-02-21T09:23:25;10.20;99.90
19363;DHT22;9817;50.80926400;5.16316200;2024-02-21T09:25:51;10.30;99.90
19363;DHT22;9817;50.80926400;5.16316200;2024-02-21T09:28:17;10.30;99.90
19363;DHT22;9817;50.80926400;5.16316200;2024-02-21T09:30:42;10.50;99.90
19363;DHT22;9817;50.80926400;5.16316200;2024-02-21T09:33:08;10.50;99.90
19363;DHT22;9817;50.80926400;5.16316200;2024-02-21T09:35:34;10.60;99.90
19363;DHT22;9817;50.80926400;5.16316200;2024-02-21T09:38:00;10.60;99.90
19363;DHT22;9817;50.80926400;5.16316200;2024-02-21T09:40:26;10.60;99.90
19363;DHT22;9817;50.80926400;5.16316200;2024-02-21T09:43:03;10.80;99.90
19363;DHT22;9817;50.80926400;5.16316200;2024-02-21T09:45:34;10.90;99.90
19363;DHT22;9817;50.80926400;5.16316200;2024-02-21T09:50:47;10.80;99.90
19363;DHT22;9817;50.80926400;5.16316200;2024-02-21T09:53:15;10.70;99.90
19363;DHT22;9817;50.80926400;5.16316200;2024-02-21T09:55:43;10.80;99.90
19363;DHT22;9817;50.80926400;5.16316200;2024-02-21T09:58:09;10.90;99.90
19363;DHT22;9817;50.80926400;5.16316200;2024-02-21T10:00:38;10.90;99.90
19363;DHT22;9817;50.80926400;5.16316200;2024-02-21T10:03:04;10.90;99.90
19363;DHT22;9817;50.80926400;5.16316200;2024-02-21T10:05:34;11.10;99.90
19363;DHT22;9817;50.80926400;5.16316200;2024-02-21T10:08:01;11.30;99.90
19363;DHT22;9817;50.80926400;5.16316200;2024-02-21T10:10:27;11.40;99.90
19363;DHT22;9817;50.80926400;5.16316200;2024-02-21T10:12:53;11.40;99.90
19363;DHT22;9817;50.80926400;5.16316200;2024-02-21T10:15:26;11.40;99.90
19363;DHT22;9817;50.80926400;5.16316200;2024-02-21T10:18:01;11.30;99.90
19363;DHT22;9817;50.80926400;5.16316200;2024-02-21T10:20:31;11.30;99.90
19363;DHT22;9817;50.80926400;5.16316200;2024-02-21T10:23:04;11.30;99.90
19363;DHT22;9817;50.80926400;5.16316200;2024-02-21T10:25:36;11.30;99.90
19363;DHT22;9817;50.80926400;5.16316200;2024-02-21T10:28:08;11.30;99.90
19363;DHT22;9817;50.80926400;5.16316200;2024-02-21T10:30:34;11.40;99.90
19363;DHT22;9817;50.80926400;5.16316200;2024-02-21T10:32:59;11.20;99.90
19363;DHT22;9817;50.80926400;5.16316200;2024-02-21T10:35:29;11.10;99.90
19363;DHT22;9817;50.80926400;5.16316200;2024-02-21T10:37:58;11.30;99.90
19363;DHT22;9817;50.80926400;5.16316200;2024-02-21T10:40:29;11.50;99.90
19363;DHT22;9817;50.80926400;5.16316200;2024-02-21T10:43:02;11.50;99.90
19363;DHT22;9817;50.80926400;5.16316200;2024-02-21T10:45:31;11.60;99.90
19363;DHT22;9817;50.80926400;5.16316200;2024-02-21T10:48:06;11.80;99.90
19363;DHT22;9817;50.80926400;5.16316200;2024-02-21T10:51:03;11.60;99.90
19363;DHT22;9817;50.80926400;5.16316200;2024-02-21T10:59:07;11.50;99.90
19363;DHT22;9817;50.80926400;5.16316200;2024-02-21T11:01:33;11.50;99.90
19363;DHT22;9817;50.80926400;5.16316200;2024-02-21T11:04:06;11.60;99.90
19363;DHT22;9817;50.80926400;5.16316200;2024-02-21T11:06:33;11.70;99.90
19363;DHT22;9817;50.80926400;5.16316200;2024-02-21T11:09:11;11.80;99.90
19363;DHT22;9817;50.80926400;5.16316200;2024-02-21T11:11:41;11.80;99.90
19363;DHT22;9817;50.80926400;5.16316200;2024-02-21T11:14:08;11.80;99.90
19363;DHT22;9817;50.80926400;5.16316200;2024-02-21T11:16:41;11.70;99.90
19363;DHT22;9817;50.80926400;5.16316200;2024-02-21T11:19:20;11.70;99.90
19363;DHT22;9817;50.80926400;5.16316200;2024-02-21T11:21:47;11.60;99.90
19363;DHT22;9817;50.80926400;5.16316200;2024-02-21T11:24:13;11.60;99.90
19363;DHT22;9817;50.80926400;5.16316200;2024-02-21T11:26:40;11.50;99.90
19363;DHT22;9817;50.80926400;5.16316200;2024-02-21T11:29:07;11.50;99.90
19363;DHT22;9817;50.80926400;5.16316200;2024-02-21T11:31:43;11.70;99.90
19363;DHT22;9817;50.80926400;5.16316200;2024-02-21T11:34:12;11.70;99.90
19363;DHT22;9817;50.80926400;5.16316200;2024-02-21T11:36:52;11.80;99.90
19363;DHT22;9817;50.80926400;5.16316200;2024-02-21T11:39:25;11.70;99.90
19363;DHT22;9817;50.80926400;5.16316200;2024-02-21T11:42:03;11.70;99.90
19363;DHT22;9817;50.80926400;5.16316200;2024-02-21T11:44:30;11.80;99.90
19363;DHT22;9817;50.80926400;5.16316200;2024-02-21T11:46:56;11.80;99.90
19363;DHT22;9817;50.80926400;5.16316200;2024-02-21T11:49:25;11.80;99.90
19363;DHT22;9817;50.80926400;5.16316200;2024-02-21T11:52:02;11.80;99.90
19363;DHT22;9817;50.80926400;5.16316200;2024-02-21T11:54:33;11.90;99.90
19363;DHT22;9817;50.80926400;5.16316200;2024-02-21T11:56:59;11.90;99.90
19363;DHT22;9817;50.80926400;5.16316200;2024-02-21T11:59:25;12.00;99.90
19363;DHT22;9817;50.80926400;5.16316200;2024-02-21T12:01:52;12.00;99.90
19363;DHT22;9817;50.80926400;5.16316200;2024-02-21T12:04:21;12.10;99.90
19363;DHT22;9817;50.80926400;5.16316200;2024-02-21T12:06:49;12.10;99.90
19363;DHT22;9817;50.80926400;5.16316200;2024-02-21T12:09:15;12.10;99.90
19363;DHT22;9817;50.80926400;5.16316200;2024-02-21T12:11:41;12.00;99.90
19363;DHT22;9817;50.80926400;5.16316200;2024-02-21T12:14:07;12.00;99.90
19363;DHT22;9817;50.80926400;5.16316200;2024-02-21T12:16:35;12.00;99.90
19363;DHT22;9817;50.80926400;5.16316200;2024-02-21T12:19:02;12.00;99.90
19363;DHT22;9817;50.80926400;5.16316200;2024-02-21T12:21:33;12.00;99.90
19363;DHT22;9817;50.80926400;5.16316200;2024-02-21T12:24:17;12.00;99.90
19363;DHT22;9817;50.80926400;5.16316200;2024-02-21T12:26:43;12.20;99.90
19363;DHT22;9817;50.80926400;5.16316200;2024-02-21T12:29:09;12.10;99.90
19363;DHT22;9817;50.80926400;5.16316200;2024-02-21T12:31:36;12.20;99.90
19363;DHT22;9817;50.80926400;5.16316200;2024-02-21T12:34:02;12.00;99.90
19363;DHT22;9817;50.80926400;5.16316200;2024-02-21T12:36:29;12.10;99.90
19363;DHT22;9817;50.80926400;5.16316200;2024-02-21T12:38:55;12.20;99.90
19363;DHT22;9817;50.80926400;5.16316200;2024-02-21T12:41:21;12.10;99.90
19363;DHT22;9817;50.80926400;5.16316200;2024-02-21T12:43:46;12.10;99.90
19363;DHT22;9817;50.80926400;5.16316200;2024-02-21T12:46:12;12.00;99.90
19363;DHT22;9817;50.80926400;5.16316200;2024-02-21T12:48:38;12.00;99.90
19363;DHT22;9817;50.80926400;5.16316200;2024-02-21T12:51:05;12.00;99.90
19363;DHT22;9817;50.80926400;5.16316200;2024-02-21T12:53:31;12.00;99.90
19363;DHT22;9817;50.80926400;5.16316200;2024-02-21T12:55:56;12.10;99.90
19363;DHT22;9817;50.80926400;5.16316200;2024-02-21T12:58:22;12.30;99.90
19363;DHT22;9817;50.80926400;5.16316200;2024-02-21T13:00:48;12.30;99.90
19363;DHT22;9817;50.80926400;5.16316200;2024-02-21T13:03:14;12.30;99.90
19363;DHT22;9817;50.80926400;5.16316200;2024-02-21T13:05:40;12.30;99.90
19363;DHT22;9817;50.80926400;5.16316200;2024-02-21T13:08:06;12.20;99.90
19363;DHT22;9817;50.80926400;5.16316200;2024-02-21T13:10:32;12.30;99.90
19363;DHT22;9817;50.80926400;5.16316200;2024-02-21T13:13:01;12.30;99.90
19363;DHT22;9817;50.80926400;5.16316200;2024-02-21T13:15:27;12.20;99.90
19363;DHT22;9817;50.80926400;5.16316200;2024-02-21T13:17:56;12.40;99.90
19363;DHT22;9817;50.80926400;5.16316200;2024-02-21T13:20:23;12.30;99.90
19363;DHT22;9817;50.80926400;5.16316200;2024-02-21T13:22:49;12.30;99.90
19363;DHT22;9817;50.80926400;5.16316200;2024-02-21T13:25:14;12.40;99.90
19363;DHT22;9817;50.80926400;5.16316200;2024-02-21T13:27:43;12.50;99.90
19363;DHT22;9817;50.80926400;5.16316200;2024-02-21T13:30:10;12.30;99.90
19363;DHT22;9817;50.80926400;5.16316200;2024-02-21T13:32:35;12.30;99.90
19363;DHT22;9817;50.80926400;5.16316200;2024-02-21T13:35:01;12.20;99.90
19363;DHT22;9817;50.80926400;5.16316200;2024-02-21T13:37:28;12.10;99.90
19363;DHT22;9817;50.80926400;5.16316200;2024-02-21T13:39:54;12.20;99.90
19363;DHT22;9817;50.80926400;5.16316200;2024-02-21T13:42:20;12.10;99.90
19363;DHT22;9817;50.80926400;5.16316200;2024-02-21T13:44:46;12.20;99.90